sensor_id;sensor_type;location;lat;lon;timestamp;P1;durP1;ratioP1;P2;durP2;ratioP2
47403;SDS011;33157;51.508;4.288;2023-10-09T00:03:59;15.30;;;9.48;;
47403;SDS011;33157;51.508;4.288;2023-10-09T00:09:01;19.40;;;11.32;;
47403;SDS011;33157;51.508;4.288;2023-10-09T00:14:25;13.75;;;9.85;;
47403;SDS011;33157;51.508;4.288;2023-10-09T00:19:26;17.85;;;9.35;;
47403;SDS011;33157;51.508;4.288;2023-10-09T00:24:33;14.73;;;8.82;;
47403;SDS011;33157;51.508;4.288;2023-10-09T00:29:33;13.95;;;8.27;;
47403;SDS011;33157;51.508;4.288;2023-10-09T00:34:34;14.68;;;8.00;;
47403;SDS011;33157;51.508;4.288;2023-10-09T00:39:39;20.80;;;8.75;;
47403;SDS011;33157;51.508;4.288;2023-10-09T00:44:40;18.15;;;8.18;;
47403;SDS011;33157;51.508;4.288;2023-10-09T00:49:42;13.82;;;7.10;;
47403;SDS011;33157;51.508;4.288;2023-10-09T00:54:44;17.85;;;7.63;;
47403;SDS011;33157;51.508;4.288;2023-10-09T00:59:54;18.85;;;7.20;;
47403;SDS011;33157;51.508;4.288;2023-10-09T01:04:59;16.27;;;6.40;;
47403;SDS011;33157;51.508;4.288;2023-10-09T01:10:08;15.43;;;7.45;;
47403;SDS011;33157;51.508;4.288;2023-10-09T01:15:12;13.25;;;7.18;;
47403;SDS011;33157;51.508;4.288;2023-10-09T01:20:33;12.30;;;7.05;;
47403;SDS011;33157;51.508;4.288;2023-10-09T01:25:41;16.10;;;7.15;;
47403;SDS011;33157;51.508;4.288;2023-10-09T01:30:44;18.02;;;8.38;;
47403;SDS011;33157;51.508;4.288;2023-10-09T01:35:45;11.30;;;7.70;;
47403;SDS011;33157;51.508;4.288;2023-10-09T01:40:50;17.80;;;8.27;;
47403;SDS011;33157;51.508;4.288;2023-10-09T01:45:51;17.07;;;8.93;;
47403;SDS011;33157;51.508;4.288;2023-10-09T01:50:52;19.67;;;8.57;;
47403;SDS011;33157;51.508;4.288;2023-10-09T01:55:53;19.45;;;8.25;;
47403;SDS011;33157;51.508;4.288;2023-10-09T02:00:55;20.00;;;8.75;;
47403;SDS011;33157;51.508;4.288;2023-10-09T02:05:56;17.00;;;9.40;;
47403;SDS011;33157;51.508;4.288;2023-10-09T02:11:00;16.75;;;8.88;;
47403;SDS011;33157;51.508;4.288;2023-10-09T02:16:02;21.17;;;9.43;;
47403;SDS011;33157;51.508;4.288;2023-10-09T02:21:15;18.70;;;9.32;;
47403;SDS011;33157;51.508;4.288;2023-10-09T02:26:17;17.80;;;9.75;;
47403;SDS011;33157;51.508;4.288;2023-10-09T02:31:47;21.58;;;9.82;;
47403;SDS011;33157;51.508;4.288;2023-10-09T02:36:51;21.77;;;10.75;;
47403;SDS011;33157;51.508;4.288;2023-10-09T02:41:58;24.90;;;10.27;;
47403;SDS011;33157;51.508;4.288;2023-10-09T02:47:01;24.42;;;11.68;;
47403;SDS011;33157;51.508;4.288;2023-10-09T02:52:05;21.17;;;11.82;;
47403;SDS011;33157;51.508;4.288;2023-10-09T02:57:17;23.38;;;11.18;;
47403;SDS011;33157;51.508;4.288;2023-10-09T03:02:24;20.90;;;10.05;;
47403;SDS011;33157;51.508;4.288;2023-10-09T03:07:24;23.40;;;10.63;;
47403;SDS011;33157;51.508;4.288;2023-10-09T03:12:28;19.83;;;10.32;;
47403;SDS011;33157;51.508;4.288;2023-10-09T03:17:28;23.63;;;11.00;;
47403;SDS011;33157;51.508;4.288;2023-10-09T03:22:29;24.98;;;12.02;;
47403;SDS011;33157;51.508;4.288;2023-10-09T03:27:31;25.15;;;11.98;;
47403;SDS011;33157;51.508;4.288;2023-10-09T03:32:31;19.48;;;12.20;;
47403;SDS011;33157;51.508;4.288;2023-10-09T03:37:31;26.30;;;12.02;;
47403;SDS011;33157;51.508;4.288;2023-10-09T03:42:35;22.27;;;12.00;;
47403;SDS011;33157;51.508;4.288;2023-10-09T03:47:37;24.63;;;11.47;;
47403;SDS011;33157;51.508;4.288;2023-10-09T03:52:37;24.42;;;11.80;;
47403;SDS011;33157;51.508;4.288;2023-10-09T03:57:38;28.92;;;12.98;;
47403;SDS011;33157;51.508;4.288;2023-10-09T04:02:40;26.45;;;14.52;;
47403;SDS011;33157;51.508;4.288;2023-10-09T04:07:42;26.00;;;14.13;;
47403;SDS011;33157;51.508;4.288;2023-10-09T04:12:42;34.10;;;16.80;;
47403;SDS011;33157;51.508;4.288;2023-10-09T04:17:43;28.48;;;15.35;;
47403;SDS011;33157;51.508;4.288;2023-10-09T04:22:44;29.23;;;15.35;;
47403;SDS011;33157;51.508;4.288;2023-10-09T04:28:02;26.83;;;15.23;;
47403;SDS011;33157;51.508;4.288;2023-10-09T04:33:24;37.42;;;18.08;;
47403;SDS011;33157;51.508;4.288;2023-10-09T04:38:33;30.75;;;16.08;;
47403;SDS011;33157;51.508;4.288;2023-10-09T04:43:37;38.08;;;17.58;;
47403;SDS011;33157;51.508;4.288;2023-10-09T04:48:43;42.95;;;19.23;;
47403;SDS011;33157;51.508;4.288;2023-10-09T04:53:46;37.53;;;17.70;;
47403;SDS011;33157;51.508;4.288;2023-10-09T04:59:00;33.83;;;18.02;;
47403;SDS011;33157;51.508;4.288;2023-10-09T05:04:04;31.00;;;18.73;;
47403;SDS011;33157;51.508;4.288;2023-10-09T05:09:16;37.80;;;19.60;;
47403;SDS011;33157;51.508;4.288;2023-10-09T05:14:20;37.17;;;19.02;;
47403;SDS011;33157;51.508;4.288;2023-10-09T05:19:27;40.38;;;19.40;;
47403;SDS011;33157;51.508;4.288;2023-10-09T05:24:42;46.80;;;21.15;;
47403;SDS011;33157;51.508;4.288;2023-10-09T05:29:47;40.80;;;22.15;;
47403;SDS011;33157;51.508;4.288;2023-10-09T05:34:59;39.00;;;23.15;;
47403;SDS011;33157;51.508;4.288;2023-10-09T05:45:01;32.30;;;20.67;;
47403;SDS011;33157;51.508;4.288;2023-10-09T05:50:17;39.67;;;22.85;;
47403;SDS011;33157;51.508;4.288;2023-10-09T05:55:21;41.63;;;24.00;;
47403;SDS011;33157;51.508;4.288;2023-10-09T06:00:26;39.70;;;23.55;;
47403;SDS011;33157;51.508;4.288;2023-10-09T06:05:48;39.17;;;23.15;;
47403;SDS011;33157;51.508;4.288;2023-10-09T06:11:01;42.22;;;22.65;;
47403;SDS011;33157;51.508;4.288;2023-10-09T06:16:20;44.75;;;22.10;;
47403;SDS011;33157;51.508;4.288;2023-10-09T06:21:32;36.88;;;22.13;;
47403;SDS011;33157;51.508;4.288;2023-10-09T06:26:51;38.20;;;23.17;;
47403;SDS011;33157;51.508;4.288;2023-10-09T06:32:04;46.20;;;25.42;;
47403;SDS011;33157;51.508;4.288;2023-10-09T06:37:24;41.83;;;25.20;;
47403;SDS011;33157;51.508;4.288;2023-10-09T06:42:27;41.25;;;24.10;;
47403;SDS011;33157;51.508;4.288;2023-10-09T06:47:31;41.00;;;25.00;;
47403;SDS011;33157;51.508;4.288;2023-10-09T06:52:41;41.42;;;25.55;;
47403;SDS011;33157;51.508;4.288;2023-10-09T06:58:00;34.60;;;21.83;;
47403;SDS011;33157;51.508;4.288;2023-10-09T07:03:11;43.80;;;23.45;;
47403;SDS011;33157;51.508;4.288;2023-10-09T07:08:11;34.20;;;21.92;;
47403;SDS011;33157;51.508;4.288;2023-10-09T07:13:31;36.15;;;24.13;;
47403;SDS011;33157;51.508;4.288;2023-10-09T07:18:37;38.15;;;22.90;;
47403;SDS011;33157;51.508;4.288;2023-10-09T07:23:49;41.10;;;26.10;;
47403;SDS011;33157;51.508;4.288;2023-10-09T07:28:50;38.97;;;24.88;;
47403;SDS011;33157;51.508;4.288;2023-10-09T07:33:51;49.15;;;26.92;;
47403;SDS011;33157;51.508;4.288;2023-10-09T07:38:58;41.85;;;27.55;;
47403;SDS011;33157;51.508;4.288;2023-10-09T07:43:59;40.70;;;25.70;;
47403;SDS011;33157;51.508;4.288;2023-10-09T07:49:19;41.65;;;26.60;;
47403;SDS011;33157;51.508;4.288;2023-10-09T07:54:25;45.88;;;25.88;;
47403;SDS011;33157;51.508;4.288;2023-10-09T07:59:32;43.35;;;24.60;;
47403;SDS011;33157;51.508;4.288;2023-10-09T08:04:32;47.55;;;26.67;;
47403;SDS011;33157;51.508;4.288;2023-10-09T08:09:48;42.15;;;24.15;;
47403;SDS011;33157;51.508;4.288;2023-10-09T08:14:48;44.17;;;24.23;;
47403;SDS011;33157;51.508;4.288;2023-10-09T08:19:50;40.85;;;23.23;;
47403;SDS011;33157;51.508;4.288;2023-10-09T08:24:53;35.55;;;21.35;;
47403;SDS011;33157;51.508;4.288;2023-10-09T08:30:01;37.22;;;21.08;;
47403;SDS011;33157;51.508;4.288;2023-10-09T08:35:18;42.33;;;22.17;;
47403;SDS011;33157;51.508;4.288;2023-10-09T08:40:31;36.00;;;21.83;;
47403;SDS011;33157;51.508;4.288;2023-10-09T08:50:49;38.25;;;21.00;;
47403;SDS011;33157;51.508;4.288;2023-10-09T08:55:50;37.17;;;21.90;;
47403;SDS011;33157;51.508;4.288;2023-10-09T09:00:51;35.40;;;21.35;;
47403;SDS011;33157;51.508;4.288;2023-10-09T09:05:59;35.35;;;22.25;;
47403;SDS011;33157;51.508;4.288;2023-10-09T09:11:05;32.42;;;19.00;;
47403;SDS011;33157;51.508;4.288;2023-10-09T09:21:16;35.42;;;20.40;;
47403;SDS011;33157;51.508;4.288;2023-10-09T09:26:38;34.60;;;20.42;;
47403;SDS011;33157;51.508;4.288;2023-10-09T09:31:51;34.83;;;19.58;;
47403;SDS011;33157;51.508;4.288;2023-10-09T09:36:58;30.65;;;18.67;;
47403;SDS011;33157;51.508;4.288;2023-10-09T09:41:59;28.60;;;17.03;;
47403;SDS011;33157;51.508;4.288;2023-10-09T09:47:17;30.23;;;16.83;;
47403;SDS011;33157;51.508;4.288;2023-10-09T09:52:28;32.92;;;16.40;;
47403;SDS011;33157;51.508;4.288;2023-10-09T09:57:29;35.40;;;17.08;;
47403;SDS011;33157;51.508;4.288;2023-10-09T10:02:31;36.97;;;19.17;;
47403;SDS011;33157;51.508;4.288;2023-10-09T10:07:37;31.65;;;19.33;;
47403;SDS011;33157;51.508;4.288;2023-10-09T10:12:49;38.45;;;18.52;;
47403;SDS011;33157;51.508;4.288;2023-10-09T10:23:19;28.00;;;16.95;;
47403;SDS011;33157;51.508;4.288;2023-10-09T10:28:26;25.95;;;14.40;;
47403;SDS011;33157;51.508;4.288;2023-10-09T10:39:07;18.40;;;9.77;;
47403;SDS011;33157;51.508;4.288;2023-10-09T10:44:32;20.80;;;8.60;;
47403;SDS011;33157;51.508;4.288;2023-10-09T10:49:37;18.58;;;7.65;;
47403;SDS011;33157;51.508;4.288;2023-10-09T10:54:38;15.63;;;6.10;;
47403;SDS011;33157;51.508;4.288;2023-10-09T10:59:39;18.08;;;6.75;;
47403;SDS011;33157;51.508;4.288;2023-10-09T11:04:45;14.18;;;6.68;;
47403;SDS011;33157;51.508;4.288;2023-10-09T11:09:57;16.45;;;6.43;;
47403;SDS011;33157;51.508;4.288;2023-10-09T11:15:05;14.48;;;5.80;;
47403;SDS011;33157;51.508;4.288;2023-10-09T11:20:07;12.82;;;5.45;;
47403;SDS011;33157;51.508;4.288;2023-10-09T11:25:25;12.88;;;6.03;;
47403;SDS011;33157;51.508;4.288;2023-10-09T11:30:32;11.67;;;5.17;;
47403;SDS011;33157;51.508;4.288;2023-10-09T11:35:34;15.38;;;5.88;;
47403;SDS011;33157;51.508;4.288;2023-10-09T11:40:35;13.52;;;5.55;;
47403;SDS011;33157;51.508;4.288;2023-10-09T11:45:53;11.65;;;5.30;;
47403;SDS011;33157;51.508;4.288;2023-10-09T11:51:14;12.90;;;5.18;;
47403;SDS011;33157;51.508;4.288;2023-10-09T11:56:20;10.15;;;4.55;;
47403;SDS011;33157;51.508;4.288;2023-10-09T12:01:21;11.70;;;5.35;;
47403;SDS011;33157;51.508;4.288;2023-10-09T12:06:23;15.07;;;5.97;;
47403;SDS011;33157;51.508;4.288;2023-10-09T12:11:23;11.40;;;5.20;;
47403;SDS011;33157;51.508;4.288;2023-10-09T12:16:28;12.93;;;5.07;;
47403;SDS011;33157;51.508;4.288;2023-10-09T12:21:33;10.35;;;5.80;;
47403;SDS011;33157;51.508;4.288;2023-10-09T12:26:35;17.23;;;5.75;;
47403;SDS011;33157;51.508;4.288;2023-10-09T12:31:38;11.68;;;5.32;;
47403;SDS011;33157;51.508;4.288;2023-10-09T12:36:39;13.43;;;5.20;;
47403;SDS011;33157;51.508;4.288;2023-10-09T12:41:39;9.77;;;5.25;;
47403;SDS011;33157;51.508;4.288;2023-10-09T12:46:44;15.80;;;5.40;;
47403;SDS011;33157;51.508;4.288;2023-10-09T12:51:54;13.82;;;6.30;;
47403;SDS011;33157;51.508;4.288;2023-10-09T12:56:56;12.95;;;5.47;;
47403;SDS011;33157;51.508;4.288;2023-10-09T13:01:58;10.05;;;4.93;;
47403;SDS011;33157;51.508;4.288;2023-10-09T13:06:58;8.17;;;4.80;;
47403;SDS011;33157;51.508;4.288;2023-10-09T13:12:03;12.80;;;5.30;;
47403;SDS011;33157;51.508;4.288;2023-10-09T13:17:04;11.70;;;5.82;;
47403;SDS011;33157;51.508;4.288;2023-10-09T13:22:10;13.88;;;5.70;;
47403;SDS011;33157;51.508;4.288;2023-10-09T13:27:14;16.02;;;5.70;;
47403;SDS011;33157;51.508;4.288;2023-10-09T13:32:21;10.77;;;5.70;;
47403;SDS011;33157;51.508;4.288;2023-10-09T13:37:21;14.68;;;5.82;;
47403;SDS011;33157;51.508;4.288;2023-10-09T13:42:22;15.57;;;5.93;;
47403;SDS011;33157;51.508;4.288;2023-10-09T13:47:26;16.98;;;6.45;;
47403;SDS011;33157;51.508;4.288;2023-10-09T13:52:31;17.98;;;6.43;;
47403;SDS011;33157;51.508;4.288;2023-10-09T13:57:32;13.73;;;6.30;;
47403;SDS011;33157;51.508;4.288;2023-10-09T14:02:32;17.40;;;6.43;;
47403;SDS011;33157;51.508;4.288;2023-10-09T14:07:33;11.30;;;5.65;;
47403;SDS011;33157;51.508;4.288;2023-10-09T14:12:35;18.48;;;6.55;;
47403;SDS011;33157;51.508;4.288;2023-10-09T14:17:40;18.30;;;6.00;;
47403;SDS011;33157;51.508;4.288;2023-10-09T14:22:43;12.68;;;6.05;;
47403;SDS011;33157;51.508;4.288;2023-10-09T14:27:45;14.98;;;5.90;;
47403;SDS011;33157;51.508;4.288;2023-10-09T14:32:48;14.98;;;5.97;;
47403;SDS011;33157;51.508;4.288;2023-10-09T14:37:56;12.30;;;5.90;;
47403;SDS011;33157;51.508;4.288;2023-10-09T14:42:57;14.05;;;6.40;;
47403;SDS011;33157;51.508;4.288;2023-10-09T14:47:58;19.58;;;7.40;;
47403;SDS011;33157;51.508;4.288;2023-10-09T14:58:01;15.15;;;7.28;;
47403;SDS011;33157;51.508;4.288;2023-10-09T15:08:14;15.52;;;6.68;;
47403;SDS011;33157;51.508;4.288;2023-10-09T15:13:15;14.32;;;6.82;;
47403;SDS011;33157;51.508;4.288;2023-10-09T15:18:18;16.33;;;6.25;;
47403;SDS011;33157;51.508;4.288;2023-10-09T15:23:21;14.68;;;6.75;;
47403;SDS011;33157;51.508;4.288;2023-10-09T15:28:22;12.35;;;6.70;;
47403;SDS011;33157;51.508;4.288;2023-10-09T15:33:22;14.02;;;6.97;;
47403;SDS011;33157;51.508;4.288;2023-10-09T15:38:23;16.95;;;6.30;;
47403;SDS011;33157;51.508;4.288;2023-10-09T15:43:25;16.23;;;6.07;;
47403;SDS011;33157;51.508;4.288;2023-10-09T15:48:26;11.48;;;5.80;;
47403;SDS011;33157;51.508;4.288;2023-10-09T15:53:27;16.85;;;6.18;;
47403;SDS011;33157;51.508;4.288;2023-10-09T15:58:27;15.47;;;5.60;;
47403;SDS011;33157;51.508;4.288;2023-10-09T16:03:29;12.35;;;5.50;;
47403;SDS011;33157;51.508;4.288;2023-10-09T16:08:29;30.50;;;11.02;;
47403;SDS011;33157;51.508;4.288;2023-10-09T16:13:31;17.88;;;6.72;;
47403;SDS011;33157;51.508;4.288;2023-10-09T16:18:33;12.20;;;5.78;;
47403;SDS011;33157;51.508;4.288;2023-10-09T16:23:34;14.40;;;5.43;;
47403;SDS011;33157;51.508;4.288;2023-10-09T16:28:36;17.58;;;6.65;;
47403;SDS011;33157;51.508;4.288;2023-10-09T16:33:36;12.35;;;6.25;;
47403;SDS011;33157;51.508;4.288;2023-10-09T16:38:38;11.45;;;5.65;;
47403;SDS011;33157;51.508;4.288;2023-10-09T16:43:39;13.65;;;5.78;;
47403;SDS011;33157;51.508;4.288;2023-10-09T16:48:43;13.40;;;5.85;;
47403;SDS011;33157;51.508;4.288;2023-10-09T16:53:46;16.15;;;6.22;;
47403;SDS011;33157;51.508;4.288;2023-10-09T16:58:46;11.70;;;5.47;;
47403;SDS011;33157;51.508;4.288;2023-10-09T17:08:55;14.38;;;6.43;;
47403;SDS011;33157;51.508;4.288;2023-10-09T17:13:56;13.52;;;6.63;;
47403;SDS011;33157;51.508;4.288;2023-10-09T17:18:57;10.75;;;5.70;;
47403;SDS011;33157;51.508;4.288;2023-10-09T17:24:00;12.73;;;5.97;;
47403;SDS011;33157;51.508;4.288;2023-10-09T17:29:01;16.42;;;7.25;;
47403;SDS011;33157;51.508;4.288;2023-10-09T17:34:01;13.55;;;6.45;;
47403;SDS011;33157;51.508;4.288;2023-10-09T17:39:03;12.50;;;6.05;;
47403;SDS011;33157;51.508;4.288;2023-10-09T17:44:06;15.23;;;6.38;;
47403;SDS011;33157;51.508;4.288;2023-10-09T17:49:07;15.90;;;7.28;;
47403;SDS011;33157;51.508;4.288;2023-10-09T17:54:07;13.50;;;7.18;;
47403;SDS011;33157;51.508;4.288;2023-10-09T17:59:14;18.27;;;7.10;;
47403;SDS011;33157;51.508;4.288;2023-10-09T18:04:17;21.27;;;8.70;;
47403;SDS011;33157;51.508;4.288;2023-10-09T18:09:19;16.30;;;7.55;;
47403;SDS011;33157;51.508;4.288;2023-10-09T18:14:19;16.50;;;8.65;;
47403;SDS011;33157;51.508;4.288;2023-10-09T18:19:20;20.48;;;8.90;;
47403;SDS011;33157;51.508;4.288;2023-10-09T18:24:20;18.77;;;9.15;;
47403;SDS011;33157;51.508;4.288;2023-10-09T18:29:23;21.83;;;9.82;;
47403;SDS011;33157;51.508;4.288;2023-10-09T18:34:24;17.43;;;9.63;;
47403;SDS011;33157;51.508;4.288;2023-10-09T18:39:26;17.35;;;9.40;;
47403;SDS011;33157;51.508;4.288;2023-10-09T18:44:30;19.17;;;11.27;;
47403;SDS011;33157;51.508;4.288;2023-10-09T18:49:30;19.75;;;9.40;;
47403;SDS011;33157;51.508;4.288;2023-10-09T18:54:31;17.50;;;10.75;;
47403;SDS011;33157;51.508;4.288;2023-10-09T18:59:36;19.45;;;9.80;;
47403;SDS011;33157;51.508;4.288;2023-10-09T19:04:36;19.05;;;10.10;;
47403;SDS011;33157;51.508;4.288;2023-10-09T19:09:37;17.67;;;11.43;;
47403;SDS011;33157;51.508;4.288;2023-10-09T19:14:37;21.00;;;11.55;;
47403;SDS011;33157;51.508;4.288;2023-10-09T19:19:38;20.75;;;10.77;;
47403;SDS011;33157;51.508;4.288;2023-10-09T19:24:39;20.00;;;11.00;;
47403;SDS011;33157;51.508;4.288;2023-10-09T19:29:41;15.35;;;9.65;;
47403;SDS011;33157;51.508;4.288;2023-10-09T19:34:47;21.17;;;10.65;;
47403;SDS011;33157;51.508;4.288;2023-10-09T19:39:48;20.10;;;10.50;;
47403;SDS011;33157;51.508;4.288;2023-10-09T19:44:49;15.13;;;10.02;;
47403;SDS011;33157;51.508;4.288;2023-10-09T19:49:52;22.55;;;10.80;;
47403;SDS011;33157;51.508;4.288;2023-10-09T19:54:52;29.25;;;11.88;;
47403;SDS011;33157;51.508;4.288;2023-10-09T19:59:55;19.00;;;11.02;;
47403;SDS011;33157;51.508;4.288;2023-10-09T20:04:56;16.27;;;10.48;;
47403;SDS011;33157;51.508;4.288;2023-10-09T20:10:00;24.13;;;12.20;;
47403;SDS011;33157;51.508;4.288;2023-10-09T20:15:01;22.13;;;11.90;;
47403;SDS011;33157;51.508;4.288;2023-10-09T20:20:03;23.93;;;12.53;;
47403;SDS011;33157;51.508;4.288;2023-10-09T20:25:07;19.50;;;11.82;;
47403;SDS011;33157;51.508;4.288;2023-10-09T20:30:12;17.80;;;11.77;;
47403;SDS011;33157;51.508;4.288;2023-10-09T20:35:13;21.25;;;10.98;;
47403;SDS011;33157;51.508;4.288;2023-10-09T20:40:15;20.60;;;12.70;;
47403;SDS011;33157;51.508;4.288;2023-10-09T20:45:18;20.00;;;12.75;;
47403;SDS011;33157;51.508;4.288;2023-10-09T20:50:19;24.95;;;14.02;;
47403;SDS011;33157;51.508;4.288;2023-10-09T20:55:20;27.70;;;14.98;;
47403;SDS011;33157;51.508;4.288;2023-10-09T21:00:26;23.88;;;14.43;;
47403;SDS011;33157;51.508;4.288;2023-10-09T21:05:32;21.73;;;12.82;;
47403;SDS011;33157;51.508;4.288;2023-10-09T21:10:34;27.38;;;14.75;;
47403;SDS011;33157;51.508;4.288;2023-10-09T21:15:42;21.08;;;13.85;;
47403;SDS011;33157;51.508;4.288;2023-10-09T21:20:42;23.77;;;13.57;;
47403;SDS011;33157;51.508;4.288;2023-10-09T21:25:42;22.95;;;12.35;;
47403;SDS011;33157;51.508;4.288;2023-10-09T21:30:43;18.98;;;12.13;;
47403;SDS011;33157;51.508;4.288;2023-10-09T21:35:43;24.80;;;14.82;;
47403;SDS011;33157;51.508;4.288;2023-10-09T21:40:44;23.73;;;14.40;;
47403;SDS011;33157;51.508;4.288;2023-10-09T21:45:44;23.52;;;14.02;;
47403;SDS011;33157;51.508;4.288;2023-10-09T21:50:45;20.80;;;12.77;;
47403;SDS011;33157;51.508;4.288;2023-10-09T21:55:46;23.08;;;14.18;;
47403;SDS011;33157;51.508;4.288;2023-10-09T22:00:46;22.52;;;14.55;;
47403;SDS011;33157;51.508;4.288;2023-10-09T22:05:47;23.85;;;15.00;;
47403;SDS011;33157;51.508;4.288;2023-10-09T22:10:47;22.40;;;14.50;;
47403;SDS011;33157;51.508;4.288;2023-10-09T22:15:48;24.75;;;14.20;;
47403;SDS011;33157;51.508;4.288;2023-10-09T22:20:49;22.38;;;13.60;;
47403;SDS011;33157;51.508;4.288;2023-10-09T22:25:54;18.42;;;13.20;;
47403;SDS011;33157;51.508;4.288;2023-10-09T22:31:00;19.33;;;13.02;;
47403;SDS011;33157;51.508;4.288;2023-10-09T22:36:03;22.40;;;13.90;;
47403;SDS011;33157;51.508;4.288;2023-10-09T22:41:04;23.55;;;14.45;;
47403;SDS011;33157;51.508;4.288;2023-10-09T22:46:06;24.70;;;13.18;;
47403;SDS011;33157;51.508;4.288;2023-10-09T22:51:07;22.40;;;13.05;;
47403;SDS011;33157;51.508;4.288;2023-10-09T22:56:11;22.10;;;12.73;;
47403;SDS011;33157;51.508;4.288;2023-10-09T23:01:16;19.48;;;12.73;;
47403;SDS011;33157;51.508;4.288;2023-10-09T23:06:26;20.98;;;12.27;;
47403;SDS011;33157;51.508;4.288;2023-10-09T23:11:33;21.67;;;11.85;;
47403;SDS011;33157;51.508;4.288;2023-10-09T23:16:34;19.67;;;11.65;;
47403;SDS011;33157;51.508;4.288;2023-10-09T23:21:48;19.98;;;10.70;;
47403;SDS011;33157;51.508;4.288;2023-10-09T23:27:07;18.58;;;11.00;;
47403;SDS011;33157;51.508;4.288;2023-10-09T23:32:25;21.95;;;12.00;;
47403;SDS011;33157;51.508;4.288;2023-10-09T23:37:32;22.80;;;13.50;;
47403;SDS011;33157;51.508;4.288;2023-10-09T23:42:43;20.88;;;13.50;;
47403;SDS011;33157;51.508;4.288;2023-10-09T23:47:57;21.35;;;13.90;;
47403;SDS011;33157;51.508;4.288;2023-10-09T23:52:59;28.30;;;15.27;;
47403;SDS011;33157;51.508;4.288;2023-10-09T23:58:02;29.33;;;17.42;;
